Time,TemperatureF,DewpointF,PressureIn,WindDirection,WindDirectionDegrees,WindSpeedMPH,WindSpeedGustMPH,Humidity,HourlyPrecipIn,Conditions,Clouds,dailyrainin,SolarRadiationWatts/m^2,SoftwareType,DateUTC
2013-02-04 00:11:00,59.0,27.0,-100.00,East,90,13.0,17.0,29,0.00,,,-99.99,0.000000,,2013-02-04 08:11:00,
2013-02-04 00:21:00,59.0,27.0,-100.00,East,90,13.0,17.0,29,0.00,,,-99.99,0.000000,,2013-02-04 08:21:00,
2013-02-04 01:11:00,58.0,24.0,-100.00,East,92,10.0,15.0,27,-99.99,,,0.00,0.000000,,2013-02-04 09:11:00,
2013-02-04 01:21:00,58.0,24.0,-100.00,East,92,10.0,15.0,27,-99.99,,,0.00,0.000000,,2013-02-04 09:21:00,
2013-02-04 02:11:00,58.0,26.0,-100.00,East,97,13.0,17.0,29,-99.99,,,-99.99,0.000000,,2013-02-04 10:11:00,
2013-02-04 02:21:00,58.0,26.0,-100.00,East,97,13.0,17.0,29,-99.99,,,-99.99,0.000000,,2013-02-04 10:21:00,
2013-02-04 03:11:00,57.0,27.0,-100.00,East,98,13.0,19.0,31,-99.99,,,0.00,0.000000,,2013-02-04 11:11:00,
2013-02-04 03:22:00,57.0,27.0,-100.00,East,98,13.0,19.0,31,-99.99,,,0.00,0.000000,,2013-02-04 11:22:00,
2013-02-04 04:12:00,57.0,26.0,-100.00,East,93,12.0,19.0,30,-99.99,,,0.00,0.000000,,2013-02-04 12:12:00,
2013-02-04 04:21:00,57.0,26.0,-100.00,East,93,12.0,19.0,30,-99.99,,,0.00,0.000000,,2013-02-04 12:21:00,
2013-02-04 05:11:00,56.0,27.0,-100.00,East,87,16.0,22.0,33,-99.99,,,0.00,0.000000,,2013-02-04 13:11:00,
2013-02-04 06:11:00,57.0,25.0,-100.00,East,89,16.0,21.0,29,-99.99,,,-99.99,0.000000,,2013-02-04 14:11:00,
2013-02-04 06:21:00,57.0,25.0,-100.00,East,89,16.0,21.0,29,-99.99,,,-99.99,0.000000,,2013-02-04 14:21:00,
2013-02-04 07:12:00,56.0,25.0,-100.00,East,91,17.0,25.0,30,-99.99,,,0.00,1.000000,,2013-02-04 15:12:00,
2013-02-04 07:23:00,56.0,25.0,-100.00,East,91,17.0,25.0,30,-99.99,,,0.00,1.000000,,2013-02-04 15:23:00,
2013-02-04 08:11:00,52.0,27.0,-100.00,ENE,75,14.0,22.0,37,-99.99,,,0.00,41.000000,,2013-02-04 16:11:00,
2013-02-04 08:22:00,52.0,27.0,-100.00,ENE,75,14.0,22.0,37,-99.99,,,0.00,41.000000,,2013-02-04 16:22:00,
2013-02-04 08:32:00,52.0,27.0,-100.00,ENE,75,14.0,22.0,37,-99.99,,,0.00,41.000000,,2013-02-04 16:32:00,
2013-02-04 10:11:00,64.0,30.0,-100.00,East,89,15.0,21.0,28,-99.99,,,0.00,420.000000,,2013-02-04 18:11:00,
2013-02-04 10:22:00,64.0,30.0,-100.00,East,89,15.0,21.0,28,-99.99,,,0.00,420.000000,,2013-02-04 18:22:00,
2013-02-04 10:31:00,64.0,30.0,-100.00,East,89,15.0,21.0,28,-99.99,,,0.00,420.000000,,2013-02-04 18:31:00,
2013-02-04 10:41:00,64.0,30.0,-100.00,East,89,15.0,21.0,28,-99.99,,,0.00,420.000000,,2013-02-04 18:41:00,
2013-02-04 11:11:00,66.0,34.0,-100.00,NNE,31,3.0,19.0,30,0.00,,,0.00,556.000000,,2013-02-04 19:11:00,
2013-02-04 11:22:00,66.0,34.0,-100.00,NNE,31,3.0,19.0,30,0.00,,,0.00,556.000000,,2013-02-04 19:22:00,
2013-02-04 11:31:00,66.0,34.0,-100.00,NNE,31,3.0,19.0,30,0.00,,,0.00,556.000000,,2013-02-04 19:31:00,
2013-02-04 11:41:00,66.0,34.0,-100.00,NNE,31,3.0,19.0,30,0.00,,,0.00,556.000000,,2013-02-04 19:41:00,
2013-02-04 12:12:00,68.0,40.0,-100.00,West,268,2.0,7.0,36,0.00,,,0.00,637.000000,,2013-02-04 20:12:00,
2013-02-04 12:21:00,68.0,40.0,-100.00,West,268,2.0,7.0,36,0.00,,,0.00,637.000000,,2013-02-04 20:21:00,
2013-02-04 12:32:00,68.0,40.0,-100.00,West,268,2.0,7.0,36,0.00,,,0.00,637.000000,,2013-02-04 20:32:00,
2013-02-04 12:42:00,68.0,40.0,-100.00,West,268,2.0,7.0,36,0.00,,,0.00,637.000000,,2013-02-04 20:42:00,
2013-02-04 13:11:00,66.0,44.0,-100.00,West,265,7.0,14.0,45,0.00,,,0.00,657.000000,,2013-02-04 21:11:00,
2013-02-04 13:22:00,66.0,44.0,-100.00,West,265,7.0,14.0,45,0.00,,,0.00,657.000000,,2013-02-04 21:22:00,
2013-02-04 13:31:00,66.0,44.0,-100.00,West,265,7.0,14.0,45,0.00,,,0.00,657.000000,,2013-02-04 21:31:00,
2013-02-04 13:42:00,66.0,44.0,-100.00,West,265,7.0,14.0,45,0.00,,,0.00,657.000000,,2013-02-04 21:42:00,
2013-02-04 14:12:00,66.0,45.0,-100.00,West,261,10.0,13.0,46,0.00,,,0.00,614.000000,,2013-02-04 22:12:00,
2013-02-04 14:21:00,66.0,45.0,-100.00,West,261,10.0,13.0,46,0.00,,,0.00,614.000000,,2013-02-04 22:21:00,
2013-02-04 14:32:00,66.0,45.0,-100.00,West,261,10.0,13.0,46,0.00,,,0.00,614.000000,,2013-02-04 22:32:00,
2013-02-04 14:41:00,66.0,45.0,-100.00,West,261,10.0,13.0,46,0.00,,,0.00,614.000000,,2013-02-04 22:41:00,
2013-02-04 15:11:00,66.0,47.0,-100.00,West,273,14.0,17.0,51,0.00,,,0.00,513.000000,,2013-02-04 23:11:00,
2013-02-04 15:21:00,66.0,47.0,-100.00,West,273,14.0,17.0,51,0.00,,,0.00,513.000000,,2013-02-04 23:21:00,
2013-02-04 15:32:00,66.0,47.0,-100.00,West,273,14.0,17.0,51,0.00,,,0.00,513.000000,,2013-02-04 23:32:00,
2013-02-04 15:41:00,66.0,47.0,-100.00,West,273,14.0,17.0,51,0.00,,,0.00,513.000000,,2013-02-04 23:41:00,
2013-02-04 16:11:00,64.0,47.0,-100.00,West,271,12.0,16.0,55,0.00,,,0.00,363.000000,,2013-02-05 00:11:00,
2013-02-04 16:21:00,64.0,47.0,-100.00,West,271,12.0,16.0,55,0.00,,,0.00,363.000000,,2013-02-05 00:21:00,
2013-02-04 16:41:00,64.0,47.0,-100.00,West,271,12.0,16.0,55,0.00,,,0.00,363.000000,,2013-02-05 00:41:00,
2013-02-04 17:11:00,61.0,48.0,-100.00,WSW,252,11.0,15.0,62,0.00,,,0.00,186.000000,,2013-02-05 01:11:00,
2013-02-04 17:21:00,61.0,48.0,-100.00,WSW,252,11.0,15.0,62,0.00,,,0.00,186.000000,,2013-02-05 01:21:00,
2013-02-04 17:32:00,61.0,48.0,-100.00,WSW,252,11.0,15.0,62,0.00,,,0.00,186.000000,,2013-02-05 01:32:00,
2013-02-04 17:42:00,61.0,48.0,-100.00,WSW,252,11.0,15.0,62,0.00,,,0.00,186.000000,,2013-02-05 01:42:00,
2013-02-04 18:11:00,59.0,45.0,-100.00,WSW,241,11.0,14.0,59,0.00,,,0.00,26.000000,,2013-02-05 02:11:00,
2013-02-04 18:21:00,59.0,45.0,-100.00,WSW,241,11.0,14.0,59,0.00,,,0.00,26.000000,,2013-02-05 02:21:00,
2013-02-04 18:31:00,59.0,45.0,-100.00,WSW,241,11.0,14.0,59,0.00,,,0.00,26.000000,,2013-02-05 02:31:00,
2013-02-04 18:41:00,59.0,45.0,-100.00,WSW,241,11.0,14.0,59,0.00,,,0.00,26.000000,,2013-02-05 02:41:00,
2013-02-04 19:11:00,57.0,47.0,-100.00,SW,232,11.0,14.0,68,0.00,,,0.00,1.000000,,2013-02-05 03:11:00,
2013-02-04 19:21:00,57.0,47.0,-100.00,SW,232,11.0,14.0,68,0.00,,,0.00,1.000000,,2013-02-05 03:21:00,
2013-02-04 19:31:00,57.0,47.0,-100.00,SW,232,11.0,14.0,68,0.00,,,0.00,1.000000,,2013-02-05 03:31:00,
2013-02-04 19:41:00,57.0,47.0,-100.00,SW,232,11.0,14.0,68,0.00,,,0.00,1.000000,,2013-02-05 03:41:00,
2013-02-04 20:11:00,56.0,46.0,-100.00,ESE,108,0.0,12.0,68,0.00,,,0.00,0.000000,,2013-02-05 04:11:00,
2013-02-04 20:21:00,56.0,46.0,-100.00,ESE,108,0.0,12.0,68,0.00,,,0.00,0.000000,,2013-02-05 04:21:00,
2013-02-04 20:31:00,56.0,46.0,-100.00,ESE,108,0.0,12.0,68,0.00,,,0.00,0.000000,,2013-02-05 04:31:00,
2013-02-04 20:41:00,56.0,46.0,-100.00,ESE,108,0.0,12.0,68,0.00,,,0.00,0.000000,,2013-02-05 04:41:00,
2013-02-04 21:11:00,59.0,44.0,-100.00,WSW,238,3.0,8.0,57,0.00,,,0.00,0.000000,,2013-02-05 05:11:00,
2013-02-04 21:21:00,59.0,44.0,-100.00,WSW,238,3.0,8.0,57,0.00,,,0.00,0.000000,,2013-02-05 05:21:00,
2013-02-04 21:31:00,59.0,44.0,-100.00,WSW,238,3.0,8.0,57,0.00,,,0.00,0.000000,,2013-02-05 05:31:00,
2013-02-04 22:11:00,55.0,42.0,-100.00,WSW,247,4.0,7.0,61,-99.99,,,0.00,0.000000,,2013-02-05 06:11:00,
2013-02-04 22:21:00,55.0,42.0,-100.00,WSW,247,4.0,7.0,61,-99.99,,,0.00,0.000000,,2013-02-05 06:21:00,
2013-02-04 22:31:00,55.0,42.0,-100.00,WSW,247,4.0,7.0,61,-99.99,,,0.00,0.000000,,2013-02-05 06:31:00,
2013-02-04 22:41:00,55.0,42.0,-100.00,WSW,247,4.0,7.0,61,-99.99,,,0.00,0.000000,,2013-02-05 06:41:00,
2013-02-04 23:11:00,56.0,40.0,-100.00,NNW,338,0.0,4.0,54,0.00,,,0.00,1.000000,,2013-02-05 07:11:00,
2013-02-04 23:22:00,56.0,40.0,-100.00,NNW,338,0.0,4.0,54,0.00,,,0.00,1.000000,,2013-02-05 07:22:00,